Monday, December 5, 2016, 11:35 AM EST

KPTW, Pottstown Limerick Airport

Location: Royersford, PA, United States Lat: 40.233
Local Time: 11:35 AM EST (16:35 GMT) Lon: -75.55
Time Zone: US/Eastern Elev: 291 ft

Show me the last for .
Show Decoded

2016-12-05 10:54 METAR KPTW 051554Z AUTO 27004KT 6SM BR OVC011 06/04 A3002 RMK AO2 SLP166
                 T00560039 =
2016-12-05 10:09 METAR KPTW 051509Z AUTO 28003KT 5SM BR OVC010 04/04 A3003 RMK AO2 CIG 006V013
                 T00440039 =
2016-12-05 09:54 METAR KPTW 051454Z AUTO 00000KT 5SM BR OVC009 04/04 A3003 RMK AO2 CIG 005V013
                 SLP170 60000 T00440039 53007 =
2016-12-05 09:44 METAR KPTW 051444Z AUTO 00000KT 6SM BR SCT005 OVC011 04/04 A3003 RMK AO2
                 T00440039 =
2016-12-05 09:11 METAR KPTW 051411Z AUTO 19003KT 4SM BR OVC005 04/03 A3002 RMK AO2 T00390033 =
2016-12-05 08:54 METAR KPTW 051354Z AUTO 24003KT 5SM BR OVC004 03/03 A3002 RMK AO2 SLP165
                 T00330028 =
2016-12-05 08:42 METAR KPTW 051342Z AUTO 23003KT 5SM BR OVC004 03/03 A3001 RMK AO2 T00330028 =
2016-12-05 07:54 METAR KPTW 051254Z AUTO 00000KT 6SM BR OVC006 03/03 A3002 RMK AO2 RAE01 SLP164
                 P0000 T00280028 =
2016-12-05 07:26 METAR KPTW 051226Z AUTO 18003KT 6SM BR OVC009 03/03 A3000 RMK AO2 RAE01 CIG
                 006V011 P0000 T00280028 =
2016-12-05 07:09 METAR KPTW 051209Z AUTO 00000KT 4SM BR BKN010 OVC015 03/02 A3001 RMK AO2 RAE01
                 P0000 T00280022 =
2016-12-05 06:54 METAR KPTW 051154Z AUTO 18003KT 3SM -RA BR BKN005 OVC009 03/02 A3001 RMK AO2
                 RAE20B27 SLP164 P0001 60017 70017 I6000 T00280022 10039 20011 56000 =
2016-12-05 06:51 METAR KPTW 051151Z AUTO 00000KT 3SM -RA BR BKN005 OVC009 03/02 A3001 RMK AO2
                 RAE20B27 P0001 =
2016-12-05 06:35 METAR KPTW 051135Z AUTO 00000KT 2 1/2SM -RA BR OVC008 02/02 A3001 RMK AO2
                 RAE20B27 CIG 002V012 P0001 T00220022 =
2016-12-05 06:28 METAR KPTW 051128Z AUTO 17003KT 2 1/2SM -RA BR BKN004 OVC008 02/02 A3001 RMK AO2
                 RAE20B27 CIG 003V008 P0000 T00220022 =
2016-12-05 06:23 METAR KPTW 051123Z AUTO 16003KT 2 1/2SM BR SCT005 OVC010 02/02 A3001 RMK AO2
                 RAE20 CIG 007V012 P0000 T00220022 =
2016-12-05 05:54 METAR KPTW 051054Z AUTO 00000KT 2SM -RA BR BKN004 OVC009 02/02 A3000 RMK AO2
                 SLP160 P0001 T00170017 TSNO =
2016-12-05 05:44 METAR KPTW 051044Z AUTO 00000KT 2SM -RA BR OVC004 02/02 A3000 RMK AO2 P0001
                 T00170017 TSNO =
2016-12-05 05:20 METAR KPTW 051020Z AUTO 00000KT 2SM -RA BR OVC006 02/02 A3002 RMK AO2 CIG
                 004V010 P0000 T00170017 =
2016-12-05 05:05 METAR KPTW 051005Z AUTO 12003KT 3SM -RA BR OVC007 02/02 A3002 RMK AO2 P0000
                 T00170017 =
2016-12-05 04:54 METAR KPTW 050954Z AUTO 00000KT 2 1/2SM -RA BR OVC007 02/01 A3002 RMK AO2 SLP164
                 P0003 T00170011 =
2016-12-05 04:35 METAR KPTW 050935Z AUTO 00000KT 2 1/2SM -RA BR OVC009 02/01 A3002 RMK AO2 CIG
                 008V012 P0002 T00170011 =
2016-12-05 04:14 METAR KPTW 050914Z AUTO 00000KT 5SM -RA BR OVC011 01/01 A3002 RMK AO2 P0001
                 T00110011 =
2016-12-05 03:54 METAR KPTW 050854Z AUTO 00000KT 5SM -RA BR BKN009 OVC013 02/01 A3003 RMK AO2 CIG
                 006V012 SLP167 P0004 60012 I1000 I3000 T00170011 56011 =
2016-12-05 03:32 METAR KPTW 050832Z AUTO 00000KT 5SM -RA BR BKN009 OVC014 02/01 A3003 RMK AO2 CIG
                 006V011 P0003 I1000 T00170011 =
2016-12-05 02:54 METAR KPTW 050754Z AUTO 17004KT 5SM -RA BR OVC013 02/01 A3004 RMK AO2 SLP172
                 P0006 I1000 T00220011 =
2016-12-05 02:52 METAR KPTW 050752Z AUTO 16005KT 5SM -RA BR BKN013 OVC020 02/01 A3004 RMK AO2
                 P0006 I1000 =
2016-12-05 02:22 METAR KPTW 050722Z AUTO VRB05KT 4SM RA BR SCT015 OVC029 03/01 A3006 RMK AO2
                 P0002 T00280011 =
2016-12-05 02:12 METAR KPTW 050712Z AUTO 17005KT 6SM -RA BR SCT017 OVC033 03/01 A3005 RMK AO2
                 P0001 T00280011 =
2016-12-05 01:54 METAR KPTW 050654Z AUTO 19004KT 5SM -RA BR SCT019 OVC023 03/01 A3006 RMK AO2
                 SLP178 P0002 T00330011 =
2016-12-05 01:44 METAR KPTW 050644Z AUTO VRB03KT 7SM -RA SCT019 OVC025 03/01 A3007 RMK AO2 P0001
                 T00330011 =
2016-12-05 01:36 METAR KPTW 050636Z AUTO 19006KT 7SM -RA SCT019 BKN030 OVC050 03/01 A3006 RMK AO2
                 P0001 T00330011 =
2016-12-05 01:05 METAR KPTW 050605Z AUTO 17007G14KT 9SM -RA BKN023 OVC060 04/01 A3006 RMK AO2
                 P0000 T00390006 =
2016-12-05 00:54 METAR KPTW 050554Z AUTO 18006G14KT 10SM -RA SCT025 BKN046 OVC060 04/00 A3006 RMK
                 AO2 RAB16 SLP178 P0000 60000 T00440000 10044 20028 58025 =
2016-12-04 23:54 METAR KPTW 050454Z AUTO 16003KT 10SM BKN060 OVC080 04/M02 A3010 RMK AO2 SLP192
                 T00441022 400780028 =
2016-12-04 22:54 METAR KPTW 050354Z AUTO 00000KT 9SM OVC110 04/M02 A3011 RMK AO2 SLP197 T00391022
                 =
2016-12-04 21:54 METAR KPTW 050254Z AUTO 00000KT 10SM CLR 04/M02 A3014 RMK AO2 SLP204 T00391022
                 56015 =
2016-12-04 20:54 METAR KPTW 050154Z AUTO 00000KT 10SM CLR 03/M02 A3014 RMK AO2 SLP205 T00331017 =
2016-12-04 19:54 METAR KPTW 050054Z AUTO 24003KT 10SM CLR 03/M02 A3017 RMK AO2 SLP217 T00331017 =
2016-12-04 18:54 METAR KPTW 042354Z AUTO 00000KT 10SM CLR 03/M02 A3018 RMK AO2 SLP219 T00281022
                 10078 20028 58004 =
2016-12-04 17:54 METAR KPTW 042254Z AUTO 00000KT 10SM CLR 04/M03 A3018 RMK AO2 SLP220 T00391033 =
2016-12-04 16:54 METAR KPTW 042154Z AUTO 00000KT 10SM CLR 05/M04 A3019 RMK AO2 SLP223 T00501039 =
2016-12-04 15:54 METAR KPTW 042054Z AUTO 01003KT 10SM CLR 06/M04 A3019 RMK AO2 SLP222 T00611039
                 58010 =
2016-12-04 14:54 METAR KPTW 041954Z AUTO VRB03KT 10SM CLR 07/M04 A3020 RMK AO2 SLP226 T00721039 =
2016-12-04 13:54 METAR KPTW 041854Z AUTO 34006KT 10SM CLR 07/M04 A3022 RMK AO2 SLP232 T00721039 =
2016-12-04 12:54 METAR KPTW 041754Z AUTO 30005KT 10SM CLR 07/M04 A3022 RMK AO2 SLP233 T00721039
                 10072 20039 58014 =
2016-12-04 11:54 METAR KPTW 041654Z AUTO VRB05KT 10SM CLR 07/M04 A3023 RMK AO2 SLP237 T00721039
                 TSNO =

Support USWX by starting your Amazon purchase here.